createdAt,value
2018-12-27T00:01:51.903Z,101938.55
2018-12-27T00:04:16.331Z,101930.78
2018-12-27T00:06:40.744Z,101926.10
2018-12-27T00:12:02.304Z,101920.70
2018-12-27T00:14:26.728Z,101921.52
2018-12-27T00:16:51.137Z,101918.73
2018-12-27T00:19:15.560Z,101918.57
2018-12-27T00:21:40.037Z,101913.88
2018-12-27T00:24:04.459Z,101917.59
2018-12-27T00:26:28.877Z,101914.60
2018-12-27T00:28:53.284Z,101906.64
2018-12-27T00:31:17.922Z,101903.77
2018-12-27T00:33:42.452Z,101901.77
2018-12-27T00:36:06.978Z,101896.27
2018-12-27T00:38:31.530Z,101892.59
2018-12-27T00:40:56.060Z,101887.13
2018-12-27T00:43:20.604Z,101890.03
2018-12-27T00:45:45.148Z,101886.21
2018-12-27T00:48:09.683Z,101872.59
2018-12-27T00:50:34.211Z,101884.03
2018-12-27T00:52:58.813Z,101880.36
2018-12-27T00:55:23.349Z,101876.49
2018-12-27T00:57:47.878Z,101873.54
2018-12-27T01:00:12.399Z,101875.16
2018-12-27T01:02:36.928Z,101877.41
2018-12-27T01:05:01.546Z,101877.72
2018-12-27T01:07:26.068Z,101879.48
2018-12-27T01:09:50.626Z,101880.02
2018-12-27T01:12:15.162Z,101883.95
2018-12-27T01:14:39.703Z,101876.84
2018-12-27T01:17:04.233Z,101881.66
2018-12-27T01:19:28.771Z,101885.36
2018-12-27T01:21:53.302Z,101881.59
2018-12-27T01:24:17.850Z,101890.05
2018-12-27T01:26:42.391Z,101880.27
2018-12-27T01:29:06.909Z,101875.34
2018-12-27T01:31:31.430Z,101877.05
2018-12-27T01:33:55.955Z,101870.64
2018-12-27T01:36:20.505Z,101871.67
2018-12-27T01:38:45.013Z,101873.20
2018-12-27T01:41:09.529Z,101875.56
2018-12-27T01:43:34.061Z,101869.43
2018-12-27T01:45:58.668Z,101862.48
2018-12-27T01:48:23.202Z,101865.23
2018-12-27T01:50:47.734Z,101860.03
2018-12-27T01:53:12.285Z,101855.33
2018-12-27T01:55:36.801Z,101862.49
2018-12-27T01:58:01.326Z,101860.56
2018-12-27T02:00:25.837Z,101867.81
2018-12-27T02:02:50.379Z,101869.89
2018-12-27T02:05:14.896Z,101861.20
2018-12-27T02:07:39.410Z,101863.74
2018-12-27T02:10:03.951Z,101862.87
2018-12-27T02:12:28.479Z,101857.74
2018-12-27T02:14:53.016Z,101859.53
2018-12-27T02:17:17.530Z,101859.96
2018-12-27T02:19:42.061Z,101844.75
2018-12-27T02:22:06.564Z,101846.27
2018-12-27T02:24:31.102Z,101839.20
2018-12-27T02:26:55.625Z,101789.47
2018-12-27T02:29:20.169Z,101838.83
2018-12-27T02:31:44.691Z,101834.14
2018-12-27T02:34:09.218Z,101838.54
2018-12-27T02:36:33.735Z,101836.88
2018-12-27T02:38:58.267Z,101838.92
2018-12-27T02:41:22.792Z,101836.55
2018-12-27T02:43:47.298Z,101838.27
2018-12-27T02:46:11.839Z,101838.48
2018-12-27T02:48:36.365Z,101839.34
2018-12-27T02:51:00.897Z,101837.98
2018-12-27T02:53:25.426Z,101829.59
2018-12-27T02:55:49.971Z,101836.02
2018-12-27T02:58:14.503Z,101825.66
2018-12-27T03:00:39.014Z,101823.27
2018-12-27T03:03:03.541Z,101826.35
2018-12-27T03:05:28.055Z,101819.84
2018-12-27T03:07:52.579Z,101822.56
2018-12-27T03:10:17.104Z,101823.09
2018-12-27T03:12:41.647Z,101818.17
2018-12-27T03:15:06.177Z,101812.05
2018-12-27T03:17:30.789Z,101815.08
2018-12-27T03:19:55.303Z,101794.12
2018-12-27T03:22:19.820Z,101798.10
2018-12-27T03:24:44.364Z,101805.44
2018-12-27T03:27:08.889Z,101801.12
2018-12-27T03:29:33.471Z,101799.64
2018-12-27T03:31:57.978Z,101810.06
2018-12-27T03:34:22.498Z,101803.36
2018-12-27T03:36:47.008Z,101805.30
2018-12-27T03:39:11.538Z,101804.61
2018-12-27T03:41:36.059Z,101799.80
2018-12-27T03:44:00.615Z,101784.97
2018-12-27T03:46:25.133Z,101791.51
2018-12-27T03:48:49.638Z,101797.69
2018-12-27T03:51:14.185Z,101775.02
2018-12-27T03:53:38.697Z,101777.89
2018-12-27T03:56:03.236Z,101782.34
2018-12-27T03:58:27.755Z,101779.97
2018-12-27T04:00:52.291Z,101773.45
2018-12-27T04:03:16.807Z,101773.81
2018-12-27T04:05:41.327Z,101770.21
2018-12-27T04:08:05.845Z,101765.51
2018-12-27T04:10:30.363Z,101765.70
2018-12-27T04:12:54.885Z,101762.55
2018-12-27T04:15:19.262Z,101764.85
2018-12-27T04:17:43.685Z,101764.48
2018-12-27T04:20:08.076Z,101764.06
2018-12-27T04:22:32.566Z,101760.59
2018-12-27T04:24:57.015Z,101754.42
2018-12-27T04:27:21.430Z,101759.13
2018-12-27T04:29:45.842Z,101753.19
2018-12-27T04:32:10.577Z,101761.97
2018-12-27T04:34:35.206Z,101762.59
2018-12-27T04:39:56.868Z,101765.00
2018-12-27T04:42:32.716Z,101766.45
2018-12-27T04:44:57.116Z,101761.64
2018-12-27T04:47:21.511Z,101759.46
2018-12-27T04:49:46.191Z,101756.28
2018-12-27T04:52:10.573Z,101754.09
2018-12-27T04:54:34.972Z,101750.46
2018-12-27T04:56:59.370Z,101748.05
2018-12-27T04:59:23.774Z,101744.00
2018-12-27T05:01:48.171Z,101749.94
2018-12-27T05:04:18.055Z,101746.34
2018-12-27T05:06:44.373Z,101753.20
2018-12-27T05:09:08.686Z,101750.52
2018-12-27T05:11:33.077Z,101758.61
2018-12-27T05:13:58.287Z,101755.58
2018-12-27T05:16:29.230Z,101754.65
2018-12-27T05:18:53.603Z,101754.17
2018-12-27T05:21:18.042Z,101755.08
2018-12-27T05:23:42.445Z,101751.58
2018-12-27T05:26:06.843Z,101749.14
2018-12-27T05:28:31.232Z,101761.16
2018-12-27T05:30:55.614Z,101755.55
2018-12-27T05:33:20.035Z,101755.87
2018-12-27T05:35:44.422Z,101760.53
2018-12-27T05:38:08.828Z,101763.27
2018-12-27T05:40:33.225Z,101756.98
2018-12-27T05:42:57.610Z,101760.36
2018-12-27T05:45:22.033Z,101758.04
2018-12-27T05:47:46.434Z,101756.81
2018-12-27T05:50:10.837Z,101766.57
2018-12-27T05:52:35.218Z,101761.36
2018-12-27T05:54:59.592Z,101759.18
2018-12-27T05:57:24.009Z,101773.52
2018-12-27T05:59:48.397Z,101764.63
2018-12-27T06:02:31.942Z,101764.48
2018-12-27T06:04:56.316Z,101762.59
2018-12-27T06:07:20.719Z,101765.11
2018-12-27T06:09:45.137Z,101758.55
2018-12-27T06:12:09.531Z,101755.58
2018-12-27T06:14:33.944Z,101756.30
2018-12-27T06:16:58.328Z,101753.83
2018-12-27T06:19:22.747Z,101762.54
2018-12-27T06:21:47.156Z,101769.81
2018-12-27T06:24:11.558Z,101760.27
2018-12-27T06:26:35.967Z,101760.84
2018-12-27T06:29:00.359Z,101760.84
2018-12-27T06:31:24.801Z,101759.61
2018-12-27T06:33:49.202Z,101766.98
2018-12-27T06:36:13.595Z,101764.38
2018-12-27T06:38:38.006Z,101770.77
2018-12-27T06:41:02.398Z,101730.48
2018-12-27T06:43:26.834Z,101762.25
2018-12-27T06:45:51.224Z,101766.79
2018-12-27T06:48:15.904Z,101768.26
2018-12-27T06:50:40.314Z,101769.47
2018-12-27T06:53:04.710Z,101768.21
2018-12-27T06:55:29.132Z,101766.80
2018-12-27T06:57:53.515Z,101772.73
2018-12-27T07:00:17.919Z,101768.31
2018-12-27T07:02:42.337Z,101765.14
2018-12-27T07:05:06.730Z,101762.40
2018-12-27T07:07:31.151Z,101754.86
2018-12-27T07:09:55.552Z,101754.16
2018-12-27T07:12:19.963Z,101760.36
2018-12-27T07:14:44.384Z,101761.73
2018-12-27T07:17:08.770Z,101761.50
2018-12-27T07:19:33.162Z,101759.70
2018-12-27T07:21:57.585Z,101763.69
2018-12-27T07:24:21.968Z,101765.70
2018-12-27T07:26:46.356Z,101767.09
2018-12-27T07:29:10.795Z,101769.03
2018-12-27T07:31:35.193Z,101770.27
2018-12-27T07:33:59.578Z,101775.53
2018-12-27T07:36:23.978Z,101777.52
2018-12-27T07:38:48.375Z,101774.96
2018-12-27T07:41:12.810Z,101778.36
2018-12-27T07:43:37.196Z,101784.45
2018-12-27T07:46:01.575Z,101770.70
2018-12-27T07:48:25.978Z,101781.91
2018-12-27T07:50:50.387Z,101778.39
2018-12-27T07:53:14.822Z,101779.88
2018-12-27T07:55:39.216Z,101775.89
2018-12-27T07:58:03.615Z,101778.73
2018-12-27T08:00:28.043Z,101776.46
2018-12-27T08:02:52.439Z,101771.42
2018-12-27T08:10:32.202Z,101762.69
2018-12-27T08:12:56.609Z,101768.27
2018-12-27T08:15:20.995Z,101767.82
2018-12-27T08:17:45.408Z,101762.88
2018-12-27T08:20:09.795Z,101762.45
2018-12-27T08:22:34.236Z,101756.81
2018-12-27T08:24:58.627Z,101764.20
2018-12-27T08:27:23.023Z,101767.66
2018-12-27T08:29:47.433Z,101766.00
2018-12-27T08:32:11.846Z,101758.47
2018-12-27T08:34:37.145Z,101766.23
2018-12-27T08:37:11.337Z,101759.21
2018-12-27T08:39:35.732Z,101758.05
2018-12-27T08:42:00.156Z,101764.67
2018-12-27T08:44:24.536Z,101759.79
2018-12-27T08:46:48.990Z,101758.91
2018-12-27T08:49:13.378Z,101753.36
2018-12-27T08:51:37.778Z,101753.92
2018-12-27T08:54:02.200Z,101755.73
2018-12-27T08:56:26.603Z,101757.70
2018-12-27T08:58:51.031Z,101753.92
2018-12-27T09:01:15.424Z,101756.67
2018-12-27T09:03:39.819Z,101751.38
2018-12-27T09:06:04.219Z,101756.31
2018-12-27T09:08:28.598Z,101743.19
2018-12-27T09:10:53.032Z,101745.09
2018-12-27T09:13:17.444Z,101740.21
2018-12-27T09:15:41.862Z,101745.69
2018-12-27T09:18:06.281Z,101745.25
2018-12-27T09:20:30.681Z,101743.88
2018-12-27T09:23:06.868Z,101740.72
2018-12-27T09:25:31.266Z,101738.45
2018-12-27T09:27:55.686Z,101731.89
2018-12-27T09:30:20.086Z,101735.23
2018-12-27T09:32:44.487Z,101735.63
2018-12-27T09:35:08.906Z,101724.48
2018-12-27T09:37:33.332Z,101731.59
2018-12-27T09:39:57.796Z,101723.06
2018-12-27T09:44:57.957Z,101718.86
2018-12-27T09:47:22.371Z,101721.57
2018-12-27T09:49:46.771Z,101719.52
2018-12-27T09:52:16.907Z,101712.72
2018-12-27T09:54:41.291Z,101728.81
2018-12-27T09:57:05.695Z,101731.53
2018-12-27T09:59:30.254Z,101731.64
2018-12-27T10:01:54.733Z,101732.34
2018-12-27T10:04:19.181Z,101730.87
2018-12-27T10:06:43.593Z,101727.47
2018-12-27T10:09:08.069Z,101725.76
2018-12-27T10:11:32.872Z,101721.13
2018-12-27T10:13:58.148Z,101719.91
2018-12-27T10:16:22.625Z,101720.06
2018-12-27T10:18:47.011Z,101718.84
2018-12-27T10:21:11.451Z,101713.52
2018-12-27T10:23:35.841Z,101705.89
2018-12-27T10:26:00.230Z,101702.29
2018-12-27T10:28:24.698Z,101709.34
2018-12-27T10:30:49.104Z,101700.90
2018-12-27T10:33:13.536Z,101702.22
2018-12-27T10:38:14.520Z,101703.42
2018-12-27T10:40:38.916Z,101698.36
2018-12-27T10:43:03.320Z,101699.61
2018-12-27T10:45:27.732Z,101704.68
2018-12-27T10:47:52.143Z,101703.40
2018-12-27T10:50:16.573Z,101709.77
2018-12-27T10:52:53.836Z,101705.95
2018-12-27T10:55:18.268Z,101694.77
2018-12-27T10:57:42.674Z,101691.28
2018-12-27T11:03:03.625Z,101693.56
2018-12-27T11:08:04.686Z,101695.93
2018-12-27T11:10:29.086Z,101689.33
2018-12-27T11:12:53.523Z,101687.67
2018-12-27T11:15:17.931Z,101690.13
2018-12-27T11:17:42.324Z,101682.06
2018-12-27T11:20:27.557Z,101673.30
2018-12-27T11:22:51.965Z,101667.08
2018-12-27T11:25:16.369Z,101662.77
2018-12-27T11:27:40.777Z,101663.75
2018-12-27T11:33:02.498Z,101651.36
2018-12-27T11:35:26.878Z,101648.12
2018-12-27T11:37:51.309Z,101655.72
2018-12-27T11:40:15.691Z,101650.85
2018-12-27T11:42:40.088Z,101642.30
2018-12-27T11:45:15.855Z,101646.78
2018-12-27T11:47:40.248Z,101647.48
2018-12-27T11:50:16.157Z,101649.59
2018-12-27T11:52:40.547Z,101647.88
2018-12-27T11:58:01.721Z,101653.45
2018-12-27T12:00:26.110Z,101649.09
2018-12-27T12:02:50.530Z,101652.82
2018-12-27T12:05:14.934Z,101648.70
2018-12-27T12:07:39.380Z,101653.60
2018-12-27T12:10:15.162Z,101645.30
2018-12-27T12:12:39.582Z,101646.77
2018-12-27T12:18:00.500Z,101647.62
2018-12-27T12:20:24.906Z,101652.58
2018-12-27T12:22:49.293Z,101650.42
2018-12-27T12:25:13.705Z,101657.13
2018-12-27T12:27:38.108Z,101660.00
2018-12-27T12:30:02.604Z,101649.44
2018-12-27T12:32:27.018Z,101651.81
2018-12-27T12:35:03.713Z,101653.97
2018-12-27T12:37:28.272Z,101648.92
2018-12-27T12:39:52.681Z,101655.45
2018-12-27T12:42:17.457Z,101651.44
2018-12-27T12:44:41.878Z,101650.72
2018-12-27T12:47:06.322Z,101652.39
2018-12-27T12:49:30.731Z,101652.91
2018-12-27T12:51:55.150Z,101650.59
2018-12-27T12:54:19.591Z,101651.14
2018-12-27T12:56:43.991Z,101655.91
2018-12-27T12:59:08.394Z,101646.27
2018-12-27T13:01:32.843Z,101642.95
2018-12-27T13:03:57.238Z,101644.36
2018-12-27T13:06:21.647Z,101637.84
2018-12-27T13:08:46.074Z,101645.53
2018-12-27T13:11:10.470Z,101643.09
2018-12-27T13:13:34.874Z,101653.64
2018-12-27T13:15:59.282Z,101642.94
2018-12-27T13:18:23.718Z,101641.18
2018-12-27T13:20:48.157Z,101631.03
2018-12-27T13:23:12.923Z,101635.64
2018-12-27T13:25:47.672Z,101636.40
2018-12-27T13:28:12.080Z,101643.68
2018-12-27T13:30:36.473Z,101644.42
2018-12-27T13:33:00.898Z,101646.66
2018-12-27T13:35:25.299Z,101647.07
2018-12-27T13:37:49.737Z,101648.13
2018-12-27T13:40:14.135Z,101646.11
2018-12-27T13:42:38.535Z,101645.28
2018-12-27T13:45:02.975Z,101641.70
2018-12-27T13:47:27.378Z,101642.45
2018-12-27T13:49:51.811Z,101641.50
2018-12-27T13:52:23.770Z,101636.48
2018-12-27T13:54:48.142Z,101641.64
2018-12-27T13:57:12.556Z,101636.47
2018-12-27T13:59:36.960Z,101639.30
2018-12-27T14:02:01.386Z,101643.57
2018-12-27T14:04:25.778Z,101641.91
2018-12-27T14:06:50.176Z,101637.34
2018-12-27T14:09:14.577Z,101638.39
2018-12-27T14:11:38.959Z,101644.63
2018-12-27T14:14:03.392Z,101645.36
2018-12-27T14:16:27.791Z,101637.81
2018-12-27T14:18:52.225Z,101630.22
2018-12-27T14:21:16.643Z,101641.34
2018-12-27T14:23:53.461Z,101627.89
2018-12-27T14:26:17.897Z,101630.37
2018-12-27T14:28:42.285Z,101634.37
2018-12-27T14:31:06.692Z,101630.95
2018-12-27T14:33:31.118Z,101630.37
2018-12-27T14:35:55.513Z,101628.59
2018-12-27T14:38:19.932Z,101631.92
2018-12-27T14:40:44.345Z,101629.90
2018-12-27T14:43:08.755Z,101625.17
2018-12-27T14:45:33.170Z,101625.86
2018-12-27T14:47:57.575Z,101628.69
2018-12-27T14:50:22.009Z,101629.27
2018-12-27T14:52:46.407Z,101623.43
2018-12-27T14:55:10.783Z,101619.66
2018-12-27T14:57:35.215Z,101625.52
2018-12-27T14:59:59.612Z,101622.94
2018-12-27T15:02:29.678Z,101628.94
2018-12-27T15:04:54.077Z,101623.77
2018-12-27T15:07:18.466Z,101631.84
2018-12-27T15:09:42.993Z,101624.20
2018-12-27T15:12:07.423Z,101632.05
2018-12-27T15:14:31.839Z,101635.39
2018-12-27T15:16:56.239Z,101633.41
2018-12-27T15:19:20.674Z,101632.43
2018-12-27T15:21:45.076Z,101628.54
2018-12-27T15:24:09.500Z,101627.61
2018-12-27T15:26:34.180Z,101620.98
2018-12-27T15:28:58.591Z,101624.06
2018-12-27T15:31:23.006Z,101629.95
2018-12-27T15:33:47.405Z,101628.75
2018-12-27T15:36:11.813Z,101632.55
2018-12-27T15:38:36.243Z,101622.75
2018-12-27T15:41:00.646Z,101629.52
2018-12-27T15:43:25.055Z,101629.72
2018-12-27T15:45:49.550Z,101627.70
2018-12-27T15:48:14.172Z,101621.45
2018-12-27T15:50:38.560Z,101618.22
2018-12-27T15:53:02.955Z,101619.38
2018-12-27T15:55:27.382Z,101622.91
2018-12-27T15:57:51.782Z,101621.13
2018-12-27T16:00:16.183Z,101617.84
2018-12-27T16:02:40.596Z,101620.42
2018-12-27T16:05:05.228Z,101615.69
2018-12-27T16:07:29.683Z,101616.81
2018-12-27T16:09:54.085Z,101615.94
2018-12-27T16:12:18.493Z,101614.48
2018-12-27T16:14:44.528Z,101623.37
2018-12-27T16:17:14.816Z,101620.79
2018-12-27T16:19:39.271Z,101614.80
2018-12-27T16:22:03.656Z,101617.51
2018-12-27T16:24:28.064Z,101614.72
2018-12-27T16:26:52.477Z,101618.86
2018-12-27T16:29:16.865Z,101612.77
2018-12-27T16:31:41.295Z,101609.24
2018-12-27T16:34:05.772Z,101607.34
2018-12-27T16:36:35.855Z,101616.52
2018-12-27T16:39:00.455Z,101616.02
2018-12-27T16:41:24.851Z,101616.16
2018-12-27T16:43:49.262Z,101616.25
2018-12-27T16:46:13.691Z,101617.51
2018-12-27T16:48:38.150Z,101611.34
2018-12-27T16:51:02.551Z,101612.63
2018-12-27T16:53:26.970Z,101608.97
2018-12-27T16:55:51.375Z,101611.00
2018-12-27T16:58:15.830Z,101607.80
2018-12-27T17:00:40.216Z,101613.63
2018-12-27T17:03:04.692Z,101608.17
2018-12-27T17:05:29.118Z,101608.45
2018-12-27T17:07:53.513Z,101604.78
2018-12-27T17:12:54.432Z,101611.16
2018-12-27T17:15:18.845Z,101605.34
2018-12-27T17:17:43.275Z,101609.52
2018-12-27T17:20:07.695Z,101545.58
2018-12-27T17:22:32.152Z,101606.31
2018-12-27T17:24:56.580Z,101610.59
2018-12-27T17:27:42.594Z,101608.05
2018-12-27T17:33:03.783Z,101608.29
2018-12-27T17:35:28.183Z,101607.31
2018-12-27T17:37:52.646Z,101610.35
2018-12-27T17:40:17.037Z,101608.01
2018-12-27T17:42:41.459Z,101609.63
2018-12-27T17:48:03.145Z,101610.06
2018-12-27T17:53:03.660Z,101604.28
2018-12-27T17:55:28.205Z,101603.05
2018-12-27T17:57:52.598Z,101608.22
2018-12-27T18:00:22.297Z,101604.89
2018-12-27T18:02:46.705Z,101597.47
2018-12-27T18:05:11.080Z,101594.69
2018-12-27T18:07:35.608Z,101599.02
2018-12-27T18:10:00.003Z,101593.80
2018-12-27T18:12:24.403Z,101593.12
2018-12-27T18:15:09.597Z,101590.27
2018-12-27T18:17:34.049Z,101595.60
2018-12-27T18:19:58.425Z,101593.87
2018-12-27T18:22:22.833Z,101596.84
2018-12-27T18:24:47.330Z,101599.78
2018-12-27T18:27:11.737Z,101593.94
2018-12-27T18:29:36.128Z,101596.07
2018-12-27T18:32:13.016Z,101593.17
2018-12-27T18:34:37.412Z,101596.35
2018-12-27T18:37:01.856Z,101599.25
2018-12-27T18:39:26.263Z,101593.60
2018-12-27T18:41:50.798Z,101597.05
2018-12-27T18:44:15.184Z,101593.74
2018-12-27T18:46:39.584Z,101593.96
2018-12-27T18:49:04.071Z,101603.89
2018-12-27T18:51:28.398Z,101603.18
2018-12-27T18:53:52.836Z,101597.08
2018-12-27T18:56:17.270Z,101604.31
2018-12-27T18:58:41.663Z,101608.11
2018-12-27T19:01:06.094Z,101609.87
2018-12-27T19:03:42.631Z,101606.80
2018-12-27T19:06:07.087Z,101606.03
2018-12-27T19:08:31.474Z,101607.73
2018-12-27T19:11:34.478Z,101601.69
2018-12-27T19:13:58.897Z,101608.46
2018-12-27T19:16:23.306Z,101603.03
2018-12-27T19:18:47.703Z,101601.15
2018-12-27T19:21:12.368Z,101600.17
2018-12-27T19:23:36.772Z,101596.71
2018-12-27T19:26:01.181Z,101599.11
2018-12-27T19:28:25.624Z,101597.89
2018-12-27T19:30:50.012Z,101603.91
2018-12-27T19:33:14.537Z,101604.01
2018-12-27T19:38:15.613Z,101607.45
2018-12-27T19:40:40.025Z,101607.05
2018-12-27T19:43:04.403Z,101624.97
2018-12-27T19:45:28.840Z,101613.79
2018-12-27T19:47:53.236Z,101614.83
2018-12-27T19:50:17.787Z,101615.64
2018-12-27T19:52:42.203Z,101624.41
2018-12-27T19:55:06.641Z,101622.44
2018-12-27T19:57:31.042Z,101628.98
2018-12-27T19:59:55.455Z,101632.16
2018-12-27T20:02:20.264Z,101627.80
2018-12-27T20:07:20.387Z,101634.36
2018-12-27T20:09:44.879Z,101636.44
2018-12-27T20:12:09.280Z,101632.81
2018-12-27T20:14:33.726Z,101636.78
2018-12-27T20:16:58.104Z,101633.21
2018-12-27T20:19:22.509Z,101620.44
2018-12-27T20:21:47.001Z,101622.36
2018-12-27T20:24:11.425Z,101565.13
2018-12-27T20:26:35.858Z,101623.73
2018-12-27T20:29:00.268Z,101618.70
2018-12-27T20:31:24.671Z,101625.69
2018-12-27T20:33:49.107Z,101627.73
2018-12-27T20:36:13.538Z,101621.22
2018-12-27T20:38:37.943Z,101623.09
2018-12-27T20:41:02.372Z,101617.27
2018-12-27T20:43:26.786Z,101623.50
2018-12-27T20:45:51.208Z,101618.96
2018-12-27T20:48:21.346Z,101616.39
2018-12-27T20:50:46.073Z,101619.77
2018-12-27T20:53:10.531Z,101617.67
2018-12-27T20:55:34.947Z,101617.58
2018-12-27T20:57:59.421Z,101621.81
2018-12-27T21:00:23.837Z,101616.37
2018-12-27T21:02:48.266Z,101614.73
2018-12-27T21:05:12.703Z,101615.98
2018-12-27T21:07:37.126Z,101610.98
2018-12-27T21:10:01.568Z,101614.90
2018-12-27T21:12:26.001Z,101611.09
2018-12-27T21:14:50.441Z,101606.03
2018-12-27T21:17:14.849Z,101606.78
2018-12-27T21:22:15.709Z,101609.11
2018-12-27T21:24:40.103Z,101600.98
2018-12-27T21:27:04.532Z,101598.48
2018-12-27T21:29:28.922Z,101609.25
2018-12-27T21:31:53.378Z,101604.40
2018-12-27T21:34:17.796Z,101596.52
2018-12-27T21:36:42.198Z,101595.72
2018-12-27T21:39:27.406Z,101584.48
2018-12-27T21:41:51.786Z,101577.10
2018-12-27T21:44:16.226Z,101584.48
2018-12-27T21:46:40.647Z,101583.55
2018-12-27T21:49:05.041Z,101580.52
2018-12-27T21:51:29.471Z,101581.05
2018-12-27T21:53:53.910Z,101586.14
2018-12-27T21:56:18.360Z,101587.09
2018-12-27T21:58:42.795Z,101586.48
2018-12-27T22:01:07.169Z,101577.27
2018-12-27T22:03:31.622Z,101573.47
2018-12-27T22:05:56.029Z,101572.64
2018-12-27T22:08:20.463Z,101578.74
2018-12-27T22:10:44.863Z,101575.02
2018-12-27T22:13:09.276Z,101570.01
2018-12-27T22:15:33.704Z,101581.05
2018-12-27T22:17:58.082Z,101582.67
2018-12-27T22:20:22.492Z,101576.61
2018-12-27T22:22:46.905Z,101571.67
2018-12-27T22:25:11.325Z,101565.66
2018-12-27T22:27:35.753Z,101569.44
2018-12-27T22:30:00.235Z,101564.05
2018-12-27T22:32:24.672Z,101569.12
2018-12-27T22:34:49.123Z,101566.93
2018-12-27T22:37:13.540Z,101572.39
2018-12-27T22:39:37.985Z,101577.11
2018-12-27T22:42:02.421Z,101567.61
2018-12-27T22:44:26.953Z,101572.83
2018-12-27T22:46:51.408Z,101518.06
2018-12-27T22:51:51.002Z,101570.30
2018-12-27T22:54:15.397Z,101567.42
2018-12-27T22:56:39.848Z,101566.69
2018-12-27T22:59:04.239Z,101571.38
2018-12-27T23:01:28.693Z,101573.75
2018-12-27T23:03:53.096Z,101582.42
2018-12-27T23:06:17.491Z,101589.33
2018-12-27T23:08:43.206Z,101594.94
2018-12-27T23:11:16.966Z,101593.88
2018-12-27T23:13:41.539Z,101589.21
2018-12-27T23:16:05.963Z,101587.94
2018-12-27T23:18:30.357Z,101583.20
2018-12-27T23:20:54.783Z,101586.55
2018-12-27T23:23:19.184Z,101581.50
2018-12-27T23:25:43.594Z,101577.17
2018-12-27T23:28:08.178Z,101573.33
2018-12-27T23:30:32.570Z,101563.56
2018-12-27T23:32:57.033Z,101569.81
2018-12-27T23:35:21.421Z,101554.75
2018-12-27T23:37:45.827Z,101557.03
2018-12-27T23:40:10.253Z,101559.37
2018-12-27T23:42:34.678Z,101555.00
2018-12-27T23:44:59.097Z,101548.61
2018-12-27T23:47:23.484Z,101549.95
2018-12-27T23:49:47.860Z,101551.17
2018-12-27T23:52:12.284Z,101555.30
2018-12-27T23:54:36.671Z,101561.27
2018-12-27T23:57:01.109Z,101547.20
2018-12-27T23:59:25.505Z,101554.89
